Voornedijk — PBOW — position and weather

sailwx.info

Track history (hours):
 
Tides and Currents Weather Stations Pressure Air Temp Water Temp Dewpoint Dewpoint Depression Visibility Wind Speed Wind Dir Waves Ship Positions

Voornedijk

Last reported at 2018-Apr-25 02:30 UTC. Time now 2018-Apr-25 02:30 UTC.
Position N 28°09' W 015°25'.

Length 90 m; draft 6.3 m.

Type: Cargo ship. MMSI: 244971000.

Date/timePositionNaut miles runAvg speedWind from/ knotsBaromVisibWave heightAir tempDewpointWater temp
2018-Apr-25 02:30N 28°09' W 015°25'0 0.0
2018-Apr-25 02:00N 28°09' W 015°25'0 0.0
2018-Apr-25 01:30N 28°09' W 015°25'0 0.0
2018-Apr-25 01:00N 28°09' W 015°25'0 0.0
2018-Apr-25 00:30N 28°09' W 015°25'0 0.0
2018-Apr-25 00:00N 28°09' W 015°25'0 0.0
2018-Apr-24 23:30N 28°09' W 015°25'0 0.0
2018-Apr-24 22:51N 28°09' W 015°25'0 0.0
2018-Apr-24 22:21N 28°09' W 015°25'0 0.0
2018-Apr-24 21:54N 28°09' W 015°25'0 0.0
2018-Apr-24 21:24N 28°09' W 015°25'0 0.0
2018-Apr-24 20:54N 28°09' W 015°25'0 0.0
2018-Apr-24 20:24N 28°09' W 015°25'0 0.0
2018-Apr-24 19:54N 28°09' W 015°25'0 0.0
2018-Apr-24 19:24N 28°09' W 015°25'0 0.0
2018-Apr-24 18:57N 28°09' W 015°25'0 0.0
2018-Apr-24 18:27N 28°09' W 015°25'0 0.0
2018-Apr-24 17:57N 28°09' W 015°25'0 0.0
2018-Apr-24 17:24N 28°09' W 015°25'0 0.0
2018-Apr-24 16:57N 28°09' W 015°25'0 0.0
2018-Apr-24 16:27N 28°09' W 015°25'0 0.0
2018-Apr-24 16:00N 28°09' W 015°25'0 0.0
2018-Apr-24 15:30N 28°09' W 015°25'0 0.0
2018-Apr-24 15:00N 28°09' W 015°25'0 0.0
2018-Apr-24 14:30N 28°09' W 015°25'0 0.0
2018-Apr-24 14:00N 28°09' W 015°25'0 0.0
2018-Apr-24 13:30N 28°09' W 015°25'0 0.0
2018-Apr-24 13:00N 28°09' W 015°25'0 0.0
2018-Apr-24 12:30N 28°09' W 015°25'0 0.0
2018-Apr-24 12:00N 28°09' W 015°25'0 0.0
2018-Apr-24 11:30N 28°09' W 015°25'0 0.0
2018-Apr-24 11:00N 28°09' W 015°25'0 0.0
2018-Apr-24 10:30N 28°09' W 015°25'0 0.0
2018-Apr-24 10:00N 28°09' W 015°25'0 0.0
2018-Apr-24 09:30N 28°09' W 015°25'0 0.0
2018-Apr-24 08:51N 28°09' W 015°25'0 0.0
2018-Apr-24 08:18N 28°09' W 015°25'0 0.0
2018-Apr-24 07:51N 28°09' W 015°25'0 0.0
2018-Apr-24 07:24N 28°09' W 015°25'0 0.2
2018-Apr-24 07:00N 28°08' W 015°25'2 4.1
2018-Apr-24 06:30N 28°07' W 015°23'1 2.7
2018-Apr-24 06:00N 28°08' W 015°22'2 3.4
2018-Apr-24 05:30N 28°08' W 015°20'510.1
2018-Apr-24 05:00N 28°12' W 015°16'610.8
2018-Apr-24 04:29N 28°17' W 015°14'510.7
2018-Apr-24 04:00N 28°22' W 015°13'510.8
2018-Apr-24 03:30N 28°27' W 015°12'510.7
2018-Apr-24 03:00N 28°33' W 015°10'510.4
2018-Apr-24 02:30N 28°38' W 015°09'  
2018-Apr-18 11:56N 45°55' W 002°22'4 8.6
2018-Apr-18 11:28N 45°56' W 002°17'4 8.9
2018-Apr-18 11:00N 45°57' W 002°11'4 9.1
2018-Apr-18 10:30N 45°59' W 002°05'5 9.5
2018-Apr-18 10:00N 46°01' W 001°59'5 9.9
2018-Apr-18 09:30N 46°02' W 001°52'5 9.9
2018-Apr-18 09:00N 46°04' W 001°45'510.2
2018-Apr-18 08:30N 46°06' W 001°38'510.3
2018-Apr-18 08:00N 46°07' W 001°31'610.8
2018-Apr-18 07:30N 46°06' W 001°23'510.5
2018-Apr-18 07:00N 46°05' W 001°16'510.3
2018-Apr-18 06:30N 46°01' W 001°12'510.1
2018-Apr-18 06:00N 45°58' W 001°05'4 8.1
2018-Apr-18 05:30N 45°58' W 000°60'3 6.3
2018-Apr-18 05:00N 45°55' W 000°59'2 4.6
2018-Apr-18 04:30N 45°57' W 000°57'1 0.0
2018-Apr-16 15:08N 45°56' W 000°55'1 6.9
2018-Apr-16 14:56N 45°57' W 000°57'2 5.4
2018-Apr-16 14:30N 45°56' W 001°00'3 5.2
2018-Apr-16 14:01N 45°57' W 001°03'611.5
2018-Apr-16 13:31N 45°60' W 001°11'510.2
2018-Apr-16 13:01N 46°04' W 001°14'0 0.3
2018-Apr-16 12:28N 46°04' W 001°14'0 0.0
2018-Apr-16 11:58N 46°04' W 001°14'0 0.0
2018-Apr-16 11:25N 46°04' W 001°14'0 0.0
2018-Apr-16 10:58N 46°04' W 001°14'0 0.1
2018-Apr-16 10:28N 46°04' W 001°14'0 0.1
2018-Apr-16 09:58N 46°05' W 001°14'0 0.1
2018-Apr-16 09:28N 46°05' W 001°14'0 0.0
2018-Apr-16 08:58N 46°05' W 001°14'0 0.0
2018-Apr-16 08:28N 46°05' W 001°14'0 0.1
2018-Apr-16 07:58N 46°04' W 001°14'0 0.0
2018-Apr-16 07:28N 46°04' W 001°14'0 0.0
2018-Apr-16 06:58N 46°04' W 001°14'0 0.0
2018-Apr-16 06:28N 46°04' W 001°14'0 0.0
2018-Apr-16 05:58N 46°04' W 001°14'0 0.2
2018-Apr-16 05:28N 46°04' W 001°14'0 0.0
2018-Apr-16 04:58N 46°04' W 001°14'0 0.1
2018-Apr-16 04:28N 46°04' W 001°14'0 0.0
2018-Apr-16 03:58N 46°04' W 001°14'0 0.0
2018-Apr-16 03:28N 46°04' W 001°14'0 0.0
2018-Apr-16 02:58N 46°04' W 001°14'0 0.0
2018-Apr-16 02:28N 46°04' W 001°14'0 0.0
2018-Apr-16 01:58N 46°04' W 001°14'0 0.0
2018-Apr-16 01:28N 46°04' W 001°14'0 0.0
2018-Apr-16 00:58N 46°04' W 001°14'0 0.0
2018-Apr-16 00:28N 46°04' W 001°14'0 0.0
2018-Apr-15 23:58N 46°04' W 001°14'0 0.0
2018-Apr-15 23:28N 46°04' W 001°14'0 0.0
2018-Apr-15 22:58N 46°04' W 001°14'0 0.0
2018-Apr-15 22:25N 46°04' W 001°14'0 0.0
2018-Apr-15 21:58N 46°04' W 001°14'0 0.1
2018-Apr-15 21:28N 46°05' W 001°14'0 0.1
2018-Apr-15 20:58N 46°04' W 001°14'0 0.0
2018-Apr-15 20:28N 46°05' W 001°14'0 0.1
2018-Apr-15 19:58N 46°04' W 001°15'0 0.0
2018-Apr-15 19:28N 46°04' W 001°15'0 0.0
2018-Apr-15 18:58N 46°04' W 001°15'0 0.0
2018-Apr-15 18:28N 46°04' W 001°14'0 0.2
2018-Apr-15 17:58N 46°05' W 001°14'0 0.1
2018-Apr-15 17:28N 46°04' W 001°14'0 0.0
2018-Apr-15 16:58N 46°04' W 001°14'0 0.1
2018-Apr-15 16:28N 46°04' W 001°14'2 4.7
2018-Apr-15 16:00N 46°05' W 001°17'611.7
2018-Apr-15 15:30N 46°07' W 001°26'611.9
2018-Apr-15 15:00N 46°07' W 001°34'611.9
2018-Apr-15 14:30N 46°09' W 001°43'611.9
2018-Apr-15 14:00N 46°12' W 001°49'612.0
2018-Apr-15 13:30N 46°16' W 001°56'611.9
2018-Apr-15 13:00N 46°20' W 002°03'611.9
2018-Apr-15 12:30N 46°23' W 002°10'611.8
2018-Apr-15 12:00N 46°27' W 002°17'7511.1
2018-Apr-15 05:14N 47°13' W 003°43'311.1
2018-Apr-15 04:59N 47°15' W 003°47'711.2
2018-Apr-15 04:19N 47°19' W 003°56'411.3
2018-Apr-15 04:00N 47°21' W 003°60'611.3
2018-Apr-15 03:30N 47°25' W 004°06'811.3
2018-Apr-15 02:50N 47°29' W 004°15'  
Track history (hours):
 
Tides and Currents Weather Stations Pressure Air Temp Water Temp Dewpoint Dewpoint Depression Visibility Wind Speed Wind Dir Waves Ship Positions

Voornedijk

Last reported at 2018-Apr-25 02:30 UTC. Time now 2018-Apr-25 02:30 UTC.
Position N 28°09' W 015°25'.

Length 90 m; draft 6.3 m.

Type: Cargo ship. MMSI: 244971000.

Date/timePositionNaut miles runAvg speedWind from/ knotsBaromVisibWave heightAir tempDewpointWater temp
2018-Apr-25 02:30N 28°09' W 015°25'0 0.0
2018-Apr-25 02:00N 28°09' W 015°25'0 0.0
2018-Apr-25 01:30N 28°09' W 015°25'0 0.0
2018-Apr-25 01:00N 28°09' W 015°25'0 0.0
2018-Apr-25 00:30N 28°09' W 015°25'0 0.0
2018-Apr-25 00:00N 28°09' W 015°25'0 0.0
2018-Apr-24 23:30N 28°09' W 015°25'0 0.0
2018-Apr-24 22:51N 28°09' W 015°25'0 0.0
2018-Apr-24 22:21N 28°09' W 015°25'0 0.0
2018-Apr-24 21:54N 28°09' W 015°25'0 0.0
2018-Apr-24 21:24N 28°09' W 015°25'0 0.0
2018-Apr-24 20:54N 28°09' W 015°25'0 0.0
2018-Apr-24 20:24N 28°09' W 015°25'0 0.0
2018-Apr-24 19:54N 28°09' W 015°25'0 0.0
2018-Apr-24 19:24N 28°09' W 015°25'0 0.0
2018-Apr-24 18:57N 28°09' W 015°25'0 0.0
2018-Apr-24 18:27N 28°09' W 015°25'0 0.0
2018-Apr-24 17:57N 28°09' W 015°25'0 0.0
2018-Apr-24 17:24N 28°09' W 015°25'0 0.0
2018-Apr-24 16:57N 28°09' W 015°25'0 0.0
2018-Apr-24 16:27N 28°09' W 015°25'0 0.0
2018-Apr-24 16:00N 28°09' W 015°25'0 0.0
2018-Apr-24 15:30N 28°09' W 015°25'0 0.0
2018-Apr-24 15:00N 28°09' W 015°25'0 0.0
2018-Apr-24 14:30N 28°09' W 015°25'0 0.0
2018-Apr-24 14:00N 28°09' W 015°25'0 0.0
2018-Apr-24 13:30N 28°09' W 015°25'0 0.0
2018-Apr-24 13:00N 28°09' W 015°25'0 0.0
2018-Apr-24 12:30N 28°09' W 015°25'0 0.0
2018-Apr-24 12:00N 28°09' W 015°25'0 0.0
2018-Apr-24 11:30N 28°09' W 015°25'0 0.0
2018-Apr-24 11:00N 28°09' W 015°25'0 0.0
2018-Apr-24 10:30N 28°09' W 015°25'0 0.0
2018-Apr-24 10:00N 28°09' W 015°25'0 0.0
2018-Apr-24 09:30N 28°09' W 015°25'0 0.0
2018-Apr-24 08:51N 28°09' W 015°25'0 0.0
2018-Apr-24 08:18N 28°09' W 015°25'0 0.0
2018-Apr-24 07:51N 28°09' W 015°25'0 0.0
2018-Apr-24 07:24N 28°09' W 015°25'0 0.2
2018-Apr-24 07:00N 28°08' W 015°25'2 4.1
2018-Apr-24 06:30N 28°07' W 015°23'1 2.7
2018-Apr-24 06:00N 28°08' W 015°22'2 3.4
2018-Apr-24 05:30N 28°08' W 015°20'510.1
2018-Apr-24 05:00N 28°12' W 015°16'610.8
2018-Apr-24 04:29N 28°17' W 015°14'510.7
2018-Apr-24 04:00N 28°22' W 015°13'510.8
2018-Apr-24 03:30N 28°27' W 015°12'510.7
2018-Apr-24 03:00N 28°33' W 015°10'510.4
2018-Apr-24 02:30N 28°38' W 015°09'  
2018-Apr-18 11:56N 45°55' W 002°22'4 8.6
2018-Apr-18 11:28N 45°56' W 002°17'4 8.9
2018-Apr-18 11:00N 45°57' W 002°11'4 9.1
2018-Apr-18 10:30N 45°59' W 002°05'5 9.5
2018-Apr-18 10:00N 46°01' W 001°59'5 9.9
2018-Apr-18 09:30N 46°02' W 001°52'5 9.9
2018-Apr-18 09:00N 46°04' W 001°45'510.2
2018-Apr-18 08:30N 46°06' W 001°38'510.3
2018-Apr-18 08:00N 46°07' W 001°31'610.8
2018-Apr-18 07:30N 46°06' W 001°23'510.5
2018-Apr-18 07:00N 46°05' W 001°16'510.3
2018-Apr-18 06:30N 46°01' W 001°12'510.1
2018-Apr-18 06:00N 45°58' W 001°05'4 8.1
2018-Apr-18 05:30N 45°58' W 000°60'3 6.3
2018-Apr-18 05:00N 45°55' W 000°59'2 4.6
2018-Apr-18 04:30N 45°57' W 000°57'1 0.0
2018-Apr-16 15:08N 45°56' W 000°55'1 6.9
2018-Apr-16 14:56N 45°57' W 000°57'2 5.4
2018-Apr-16 14:30N 45°56' W 001°00'3 5.2
2018-Apr-16 14:01N 45°57' W 001°03'611.5
2018-Apr-16 13:31N 45°60' W 001°11'510.2
2018-Apr-16 13:01N 46°04' W 001°14'0 0.3
2018-Apr-16 12:28N 46°04' W 001°14'0 0.0
2018-Apr-16 11:58N 46°04' W 001°14'0 0.0
2018-Apr-16 11:25N 46°04' W 001°14'0 0.0
2018-Apr-16 10:58N 46°04' W 001°14'0 0.1
2018-Apr-16 10:28N 46°04' W 001°14'0 0.1
2018-Apr-16 09:58N 46°05' W 001°14'0 0.1
2018-Apr-16 09:28N 46°05' W 001°14'0 0.0
2018-Apr-16 08:58N 46°05' W 001°14'0 0.0
2018-Apr-16 08:28N 46°05' W 001°14'0 0.1
2018-Apr-16 07:58N 46°04' W 001°14'0 0.0
2018-Apr-16 07:28N 46°04' W 001°14'0 0.0
2018-Apr-16 06:58N 46°04' W 001°14'0 0.0
2018-Apr-16 06:28N 46°04' W 001°14'0 0.0
2018-Apr-16 05:58N 46°04' W 001°14'0 0.2
2018-Apr-16 05:28N 46°04' W 001°14'0 0.0
2018-Apr-16 04:58N 46°04' W 001°14'0 0.1
2018-Apr-16 04:28N 46°04' W 001°14'0 0.0
2018-Apr-16 03:58N 46°04' W 001°14'0 0.0
2018-Apr-16 03:28N 46°04' W 001°14'0 0.0
2018-Apr-16 02:58N 46°04' W 001°14'0 0.0
2018-Apr-16 02:28N 46°04' W 001°14'0 0.0
2018-Apr-16 01:58N 46°04' W 001°14'0 0.0
2018-Apr-16 01:28N 46°04' W 001°14'0 0.0
2018-Apr-16 00:58N 46°04' W 001°14'0 0.0
2018-Apr-16 00:28N 46°04' W 001°14'0 0.0
2018-Apr-15 23:58N 46°04' W 001°14'0 0.0
2018-Apr-15 23:28N 46°04' W 001°14'0 0.0
2018-Apr-15 22:58N 46°04' W 001°14'0 0.0
2018-Apr-15 22:25N 46°04' W 001°14'0 0.0
2018-Apr-15 21:58N 46°04' W 001°14'0 0.1
2018-Apr-15 21:28N 46°05' W 001°14'0 0.1
2018-Apr-15 20:58N 46°04' W 001°14'0 0.0
2018-Apr-15 20:28N 46°05' W 001°14'0 0.1
2018-Apr-15 19:58N 46°04' W 001°15'0 0.0
2018-Apr-15 19:28N 46°04' W 001°15'0 0.0
2018-Apr-15 18:58N 46°04' W 001°15'0 0.0
2018-Apr-15 18:28N 46°04' W 001°14'0 0.2
2018-Apr-15 17:58N 46°05' W 001°14'0 0.1
2018-Apr-15 17:28N 46°04' W 001°14'0 0.0
2018-Apr-15 16:58N 46°04' W 001°14'0 0.1
2018-Apr-15 16:28N 46°04' W 001°14'2 4.7
2018-Apr-15 16:00N 46°05' W 001°17'611.7
2018-Apr-15 15:30N 46°07' W 001°26'611.9
2018-Apr-15 15:00N 46°07' W 001°34'611.9
2018-Apr-15 14:30N 46°09' W 001°43'611.9
2018-Apr-15 14:00N 46°12' W 001°49'612.0
2018-Apr-15 13:30N 46°16' W 001°56'611.9
2018-Apr-15 13:00N 46°20' W 002°03'611.9
2018-Apr-15 12:30N 46°23' W 002°10'611.8
2018-Apr-15 12:00N 46°27' W 002°17'7511.1
2018-Apr-15 05:14N 47°13' W 003°43'311.1
2018-Apr-15 04:59N 47°15' W 003°47'711.2
2018-Apr-15 04:19N 47°19' W 003°56'411.3
2018-Apr-15 04:00N 47°21' W 003°60'611.3
2018-Apr-15 03:30N 47°25' W 004°06'811.3
2018-Apr-15 02:50N 47°29' W 004°15'  

Dump ship's entire track history